Flight Briefing for CPX963

Departure Arrival
Chicago/Rockford International Airport (KRFD)
Click to view FAA NOTAMS
Joint Base McGuire Dix Lakehurst (KWRI)
Click to view FAA NOTAMS
Departure Time Arrival Time
N/A N/A
Aircraft Distance
B767-300BDSF 670nm
Departure METAR Arrival METAR
KRFD 250254Z 14008KT 10SM FEW042 BKN095 BKN210 22/20 A2989 RMK AO2 SLP119 FRQ LTGIC DSNT NW CB DSNT NW MOV NE T02220200 57009 KWRI 250256Z AUTO 06007KT 10SM FEW190 17/10 A3009 RMK AO2 SLP188 T01730104 50020 TSNO $
Suggested Route
QUOTE WHETT J64 LEPEW J518 AVERE J152 HAR HAR5


View recent IFR Routes data
Notes
EMPTY | NON-REVENUE REPOSITIONING LEG

Charts and Procedures

Charts for KRFD
No chart available
Charts for KWRI
No chart available

Windy.com Weather Map